sensor_id;sensor_type;location;lat;lon;timestamp;P1;durP1;ratioP1;P2;durP2;ratioP2
14066;SDS011;7108;42.684;23.350;2022-08-14T00:00:49;250.87;;;131.60;;
14066;SDS011;7108;42.684;23.350;2022-08-14T00:03:25;250.67;;;130.33;;
14066;SDS011;7108;42.684;23.350;2022-08-14T00:05:54;250.30;;;128.67;;
14066;SDS011;7108;42.684;23.350;2022-08-14T00:08:21;245.47;;;130.43;;
14066;SDS011;7108;42.684;23.350;2022-08-14T00:10:46;246.20;;;127.13;;
14066;SDS011;7108;42.684;23.350;2022-08-14T00:13:13;227.53;;;121.73;;
14066;SDS011;7108;42.684;23.350;2022-08-14T00:15:40;231.87;;;125.17;;
14066;SDS011;7108;42.684;23.350;2022-08-14T00:18:08;229.63;;;125.63;;
14066;SDS011;7108;42.684;23.350;2022-08-14T00:20:38;245.43;;;127.03;;
14066;SDS011;7108;42.684;23.350;2022-08-14T00:23:07;235.23;;;128.23;;
14066;SDS011;7108;42.684;23.350;2022-08-14T00:25:34;235.43;;;128.27;;
14066;SDS011;7108;42.684;23.350;2022-08-14T00:28:01;251.30;;;129.87;;
14066;SDS011;7108;42.684;23.350;2022-08-14T00:30:28;256.60;;;131.10;;
14066;SDS011;7108;42.684;23.350;2022-08-14T00:32:54;252.13;;;131.67;;
14066;SDS011;7108;42.684;23.350;2022-08-14T00:35:19;242.50;;;130.83;;
14066;SDS011;7108;42.684;23.350;2022-08-14T00:37:45;252.63;;;132.63;;
14066;SDS011;7108;42.684;23.350;2022-08-14T00:40:12;247.43;;;131.77;;
14066;SDS011;7108;42.684;23.350;2022-08-14T00:42:39;234.47;;;124.97;;
14066;SDS011;7108;42.684;23.350;2022-08-14T00:45:06;234.33;;;123.70;;
14066;SDS011;7108;42.684;23.350;2022-08-14T00:47:34;255.27;;;130.20;;
14066;SDS011;7108;42.684;23.350;2022-08-14T00:50:00;255.70;;;131.97;;
14066;SDS011;7108;42.684;23.350;2022-08-14T00:52:27;242.37;;;129.80;;
14066;SDS011;7108;42.684;23.350;2022-08-14T00:54:53;251.00;;;131.83;;
14066;SDS011;7108;42.684;23.350;2022-08-14T00:57:29;266.30;;;132.80;;
14066;SDS011;7108;42.684;23.350;2022-08-14T00:59:55;251.60;;;133.57;;
14066;SDS011;7108;42.684;23.350;2022-08-14T01:02:22;246.73;;;126.80;;
14066;SDS011;7108;42.684;23.350;2022-08-14T01:04:49;259.77;;;129.50;;
14066;SDS011;7108;42.684;23.350;2022-08-14T01:07:16;226.30;;;122.17;;
14066;SDS011;7108;42.684;23.350;2022-08-14T01:09:45;225.53;;;126.83;;
14066;SDS011;7108;42.684;23.350;2022-08-14T01:12:11;242.87;;;130.67;;
14066;SDS011;7108;42.684;23.350;2022-08-14T01:14:39;235.10;;;124.40;;
14066;SDS011;7108;42.684;23.350;2022-08-14T01:17:04;260.87;;;131.27;;
14066;SDS011;7108;42.684;23.350;2022-08-14T01:19:30;234.27;;;124.43;;
14066;SDS011;7108;42.684;23.350;2022-08-14T01:22:14;235.50;;;125.40;;
14066;SDS011;7108;42.684;23.350;2022-08-14T01:24:40;234.30;;;128.67;;
14066;SDS011;7108;42.684;23.350;2022-08-14T01:27:06;263.73;;;130.67;;
14066;SDS011;7108;42.684;23.350;2022-08-14T01:29:32;264.23;;;132.33;;
14066;SDS011;7108;42.684;23.350;2022-08-14T01:32:02;257.63;;;134.43;;
14066;SDS011;7108;42.684;23.350;2022-08-14T01:34:28;251.00;;;133.93;;
14066;SDS011;7108;42.684;23.350;2022-08-14T01:36:57;254.40;;;127.03;;
14066;SDS011;7108;42.684;23.350;2022-08-14T01:39:24;256.57;;;129.53;;
14066;SDS011;7108;42.684;23.350;2022-08-14T01:41:50;235.03;;;127.03;;
14066;SDS011;7108;42.684;23.350;2022-08-14T01:44:25;259.07;;;126.30;;
14066;SDS011;7108;42.684;23.350;2022-08-14T01:46:58;247.20;;;126.03;;
14066;SDS011;7108;42.684;23.350;2022-08-14T01:49:25;256.30;;;130.87;;
14066;SDS011;7108;42.684;23.350;2022-08-14T01:51:51;242.57;;;126.17;;
14066;SDS011;7108;42.684;23.350;2022-08-14T01:54:21;234.13;;;126.07;;
14066;SDS011;7108;42.684;23.350;2022-08-14T01:56:52;235.50;;;129.87;;
14066;SDS011;7108;42.684;23.350;2022-08-14T01:59:32;236.67;;;128.03;;
14066;SDS011;7108;42.684;23.350;2022-08-14T02:02:04;246.30;;;130.30;;
14066;SDS011;7108;42.684;23.350;2022-08-14T02:04:39;246.20;;;131.70;;
14066;SDS011;7108;42.684;23.350;2022-08-14T02:07:05;245.20;;;128.13;;
14066;SDS011;7108;42.684;23.350;2022-08-14T02:09:34;247.20;;;130.73;;
14066;SDS011;7108;42.684;23.350;2022-08-14T02:12:03;243.43;;;130.53;;
14066;SDS011;7108;42.684;23.350;2022-08-14T02:14:30;256.90;;;132.47;;
14066;SDS011;7108;42.684;23.350;2022-08-14T02:16:57;241.00;;;122.57;;
14066;SDS011;7108;42.684;23.350;2022-08-14T02:19:24;242.13;;;130.40;;
14066;SDS011;7108;42.684;23.350;2022-08-14T02:21:52;248.50;;;125.47;;
14066;SDS011;7108;42.684;23.350;2022-08-14T02:24:20;237.83;;;125.97;;
14066;SDS011;7108;42.684;23.350;2022-08-14T02:26:48;224.70;;;124.00;;
14066;SDS011;7108;42.684;23.350;2022-08-14T02:29:19;250.40;;;130.37;;
14066;SDS011;7108;42.684;23.350;2022-08-14T02:31:48;229.53;;;125.60;;
14066;SDS011;7108;42.684;23.350;2022-08-14T02:36:43;250.87;;;127.93;;
14066;SDS011;7108;42.684;23.350;2022-08-14T02:39:11;250.03;;;125.60;;
14066;SDS011;7108;42.684;23.350;2022-08-14T02:41:37;258.30;;;133.97;;
14066;SDS011;7108;42.684;23.350;2022-08-14T02:44:05;242.00;;;132.40;;
14066;SDS011;7108;42.684;23.350;2022-08-14T02:46:34;247.63;;;132.87;;
14066;SDS011;7108;42.684;23.350;2022-08-14T02:49:00;258.33;;;131.93;;
14066;SDS011;7108;42.684;23.350;2022-08-14T02:51:27;239.10;;;132.50;;
14066;SDS011;7108;42.684;23.350;2022-08-14T02:53:54;240.57;;;130.83;;
14066;SDS011;7108;42.684;23.350;2022-08-14T02:56:19;231.50;;;127.33;;
14066;SDS011;7108;42.684;23.350;2022-08-14T02:58:46;223.03;;;127.53;;
14066;SDS011;7108;42.684;23.350;2022-08-14T03:01:17;231.80;;;127.30;;
14066;SDS011;7108;42.684;23.350;2022-08-14T03:03:44;250.80;;;128.87;;
14066;SDS011;7108;42.684;23.350;2022-08-14T03:06:12;239.50;;;126.27;;
14066;SDS011;7108;42.684;23.350;2022-08-14T03:08:39;236.03;;;125.00;;
14066;SDS011;7108;42.684;23.350;2022-08-14T03:11:06;270.97;;;132.23;;
14066;SDS011;7108;42.684;23.350;2022-08-14T03:13:37;249.57;;;128.07;;
14066;SDS011;7108;42.684;23.350;2022-08-14T03:16:08;255.13;;;132.83;;
14066;SDS011;7108;42.684;23.350;2022-08-14T03:18:37;253.23;;;131.17;;
14066;SDS011;7108;42.684;23.350;2022-08-14T03:21:13;267.67;;;134.37;;
14066;SDS011;7108;42.684;23.350;2022-08-14T03:23:42;251.20;;;133.50;;
14066;SDS011;7108;42.684;23.350;2022-08-14T03:26:10;253.23;;;132.83;;
14066;SDS011;7108;42.684;23.350;2022-08-14T03:28:37;265.30;;;128.93;;
14066;SDS011;7108;42.684;23.350;2022-08-14T03:31:05;249.63;;;127.43;;
14066;SDS011;7108;42.684;23.350;2022-08-14T03:33:32;239.10;;;127.00;;
14066;SDS011;7108;42.684;23.350;2022-08-14T03:36:01;241.87;;;135.83;;
14066;SDS011;7108;42.684;23.350;2022-08-14T03:38:32;253.20;;;129.77;;
14066;SDS011;7108;42.684;23.350;2022-08-14T03:40:58;248.80;;;132.53;;
14066;SDS011;7108;42.684;23.350;2022-08-14T03:43:23;245.67;;;132.23;;
14066;SDS011;7108;42.684;23.350;2022-08-14T03:45:49;237.27;;;128.17;;
14066;SDS011;7108;42.684;23.350;2022-08-14T03:48:15;270.73;;;130.87;;
14066;SDS011;7108;42.684;23.350;2022-08-14T03:50:46;260.30;;;131.97;;
14066;SDS011;7108;42.684;23.350;2022-08-14T03:53:18;241.20;;;130.97;;
14066;SDS011;7108;42.684;23.350;2022-08-14T03:55:45;263.13;;;133.97;;
14066;SDS011;7108;42.684;23.350;2022-08-14T03:58:11;277.57;;;138.50;;
14066;SDS011;7108;42.684;23.350;2022-08-14T04:00:38;273.00;;;136.77;;
14066;SDS011;7108;42.684;23.350;2022-08-14T04:03:05;254.50;;;137.80;;
14066;SDS011;7108;42.684;23.350;2022-08-14T04:05:34;252.20;;;135.47;;
14066;SDS011;7108;42.684;23.350;2022-08-14T04:08:02;242.33;;;129.20;;
14066;SDS011;7108;42.684;23.350;2022-08-14T04:10:29;235.67;;;132.23;;
14066;SDS011;7108;42.684;23.350;2022-08-14T04:12:55;249.80;;;133.70;;
14066;SDS011;7108;42.684;23.350;2022-08-14T04:15:25;258.83;;;139.27;;
14066;SDS011;7108;42.684;23.350;2022-08-14T04:17:53;246.97;;;133.03;;
14066;SDS011;7108;42.684;23.350;2022-08-14T04:20:19;250.70;;;132.00;;
14066;SDS011;7108;42.684;23.350;2022-08-14T04:22:46;259.77;;;134.27;;
14066;SDS011;7108;42.684;23.350;2022-08-14T04:25:14;268.83;;;141.13;;
14066;SDS011;7108;42.684;23.350;2022-08-14T04:27:40;263.40;;;137.20;;
14066;SDS011;7108;42.684;23.350;2022-08-14T04:30:06;268.93;;;136.13;;
14066;SDS011;7108;42.684;23.350;2022-08-14T04:32:31;245.83;;;134.60;;
14066;SDS011;7108;42.684;23.350;2022-08-14T04:34:58;247.13;;;134.17;;
14066;SDS011;7108;42.684;23.350;2022-08-14T04:37:24;243.37;;;132.77;;
14066;SDS011;7108;42.684;23.350;2022-08-14T04:40:09;240.60;;;131.00;;
14066;SDS011;7108;42.684;23.350;2022-08-14T04:42:54;250.50;;;130.10;;
14066;SDS011;7108;42.684;23.350;2022-08-14T04:45:38;261.93;;;128.93;;
14066;SDS011;7108;42.684;23.350;2022-08-14T04:48:08;246.03;;;129.23;;
14066;SDS011;7108;42.684;23.350;2022-08-14T04:50:38;253.27;;;129.03;;
14066;SDS011;7108;42.684;23.350;2022-08-14T04:53:09;291.13;;;139.63;;
14066;SDS011;7108;42.684;23.350;2022-08-14T04:55:39;252.47;;;132.43;;
14066;SDS011;7108;42.684;23.350;2022-08-14T04:58:05;251.87;;;136.13;;
14066;SDS011;7108;42.684;23.350;2022-08-14T05:00:31;256.43;;;137.93;;
14066;SDS011;7108;42.684;23.350;2022-08-14T05:02:57;262.67;;;137.60;;
14066;SDS011;7108;42.684;23.350;2022-08-14T05:05:23;251.57;;;137.30;;
14066;SDS011;7108;42.684;23.350;2022-08-14T05:07:52;263.47;;;142.10;;
14066;SDS011;7108;42.684;23.350;2022-08-14T05:10:17;257.83;;;134.87;;
14066;SDS011;7108;42.684;23.350;2022-08-14T05:12:49;253.03;;;136.60;;
14066;SDS011;7108;42.684;23.350;2022-08-14T05:15:16;284.13;;;141.10;;
14066;SDS011;7108;42.684;23.350;2022-08-14T05:17:45;256.77;;;134.33;;
14066;SDS011;7108;42.684;23.350;2022-08-14T05:20:11;268.83;;;139.87;;
14066;SDS011;7108;42.684;23.350;2022-08-14T05:22:37;243.50;;;138.50;;
14066;SDS011;7108;42.684;23.350;2022-08-14T05:25:02;264.00;;;139.00;;
14066;SDS011;7108;42.684;23.350;2022-08-14T05:27:28;267.47;;;137.37;;
14066;SDS011;7108;42.684;23.350;2022-08-14T05:29:54;272.97;;;137.13;;
14066;SDS011;7108;42.684;23.350;2022-08-14T05:32:20;255.13;;;139.33;;
14066;SDS011;7108;42.684;23.350;2022-08-14T05:34:46;255.30;;;136.77;;
14066;SDS011;7108;42.684;23.350;2022-08-14T05:37:11;248.80;;;133.73;;
14066;SDS011;7108;42.684;23.350;2022-08-14T05:39:38;264.83;;;140.17;;
14066;SDS011;7108;42.684;23.350;2022-08-14T05:42:06;250.77;;;132.67;;
14066;SDS011;7108;42.684;23.350;2022-08-14T05:44:32;255.67;;;135.63;;
14066;SDS011;7108;42.684;23.350;2022-08-14T05:46:58;252.40;;;137.60;;
14066;SDS011;7108;42.684;23.350;2022-08-14T05:49:23;261.90;;;136.47;;
14066;SDS011;7108;42.684;23.350;2022-08-14T05:51:49;268.00;;;132.53;;
14066;SDS011;7108;42.684;23.350;2022-08-14T05:54:15;253.83;;;133.57;;
14066;SDS011;7108;42.684;23.350;2022-08-14T05:56:40;249.00;;;131.53;;
14066;SDS011;7108;42.684;23.350;2022-08-14T05:59:06;262.30;;;133.57;;
14066;SDS011;7108;42.684;23.350;2022-08-14T06:01:31;238.67;;;123.97;;
14066;SDS011;7108;42.684;23.350;2022-08-14T06:03:57;225.10;;;126.37;;
14066;SDS011;7108;42.684;23.350;2022-08-14T06:06:22;250.57;;;132.13;;
14066;SDS011;7108;42.684;23.350;2022-08-14T06:08:48;251.87;;;132.10;;
14066;SDS011;7108;42.684;23.350;2022-08-14T06:11:13;267.90;;;132.70;;
14066;SDS011;7108;42.684;23.350;2022-08-14T06:13:40;238.53;;;129.07;;
14066;SDS011;7108;42.684;23.350;2022-08-14T06:16:07;234.77;;;129.63;;
14066;SDS011;7108;42.684;23.350;2022-08-14T06:18:33;242.53;;;130.33;;
14066;SDS011;7108;42.684;23.350;2022-08-14T06:21:03;237.57;;;131.23;;
14066;SDS011;7108;42.684;23.350;2022-08-14T06:23:29;235.00;;;125.23;;
14066;SDS011;7108;42.684;23.350;2022-08-14T06:25:54;245.57;;;130.83;;
14066;SDS011;7108;42.684;23.350;2022-08-14T06:28:21;254.83;;;127.63;;
14066;SDS011;7108;42.684;23.350;2022-08-14T06:30:50;244.70;;;127.83;;
14066;SDS011;7108;42.684;23.350;2022-08-14T06:33:16;253.23;;;125.03;;
14066;SDS011;7108;42.684;23.350;2022-08-14T06:35:43;246.37;;;123.60;;
14066;SDS011;7108;42.684;23.350;2022-08-14T06:38:12;243.57;;;126.83;;
14066;SDS011;7108;42.684;23.350;2022-08-14T06:40:39;260.90;;;128.13;;
14066;SDS011;7108;42.684;23.350;2022-08-14T06:43:06;238.90;;;124.90;;
14066;SDS011;7108;42.684;23.350;2022-08-14T06:45:34;245.53;;;126.47;;
14066;SDS011;7108;42.684;23.350;2022-08-14T06:48:01;230.30;;;125.40;;
14066;SDS011;7108;42.684;23.350;2022-08-14T06:50:28;244.13;;;130.87;;
14066;SDS011;7108;42.684;23.350;2022-08-14T06:52:56;276.73;;;135.80;;
14066;SDS011;7108;42.684;23.350;2022-08-14T06:55:22;257.13;;;134.47;;
14066;SDS011;7108;42.684;23.350;2022-08-14T06:57:49;253.53;;;138.30;;
14066;SDS011;7108;42.684;23.350;2022-08-14T07:00:20;252.37;;;136.53;;
14066;SDS011;7108;42.684;23.350;2022-08-14T07:02:52;263.00;;;136.37;;
14066;SDS011;7108;42.684;23.350;2022-08-14T07:05:37;239.70;;;133.03;;
14066;SDS011;7108;42.684;23.350;2022-08-14T07:10:51;251.13;;;135.13;;
14066;SDS011;7108;42.684;23.350;2022-08-14T07:13:18;251.10;;;131.80;;
14066;SDS011;7108;42.684;23.350;2022-08-14T07:15:44;247.00;;;131.07;;
14066;SDS011;7108;42.684;23.350;2022-08-14T07:18:17;223.97;;;122.70;;
14066;SDS011;7108;42.684;23.350;2022-08-14T07:20:44;242.13;;;130.53;;
14066;SDS011;7108;42.684;23.350;2022-08-14T07:23:10;245.53;;;127.30;;
14066;SDS011;7108;42.684;23.350;2022-08-14T07:25:37;239.27;;;129.63;;
14066;SDS011;7108;42.684;23.350;2022-08-14T07:30:35;222.23;;;117.17;;
14066;SDS011;7108;42.684;23.350;2022-08-14T07:33:01;250.27;;;124.00;;
14066;SDS011;7108;42.684;23.350;2022-08-14T07:35:27;238.57;;;120.60;;
14066;SDS011;7108;42.684;23.350;2022-08-14T07:37:53;245.97;;;121.43;;
14066;SDS011;7108;42.684;23.350;2022-08-14T07:40:18;250.20;;;119.90;;
14066;SDS011;7108;42.684;23.350;2022-08-14T07:42:43;237.70;;;126.63;;
14066;SDS011;7108;42.684;23.350;2022-08-14T07:45:09;231.67;;;123.97;;
14066;SDS011;7108;42.684;23.350;2022-08-14T07:47:39;230.07;;;118.73;;
14066;SDS011;7108;42.684;23.350;2022-08-14T07:50:11;230.80;;;115.37;;
14066;SDS011;7108;42.684;23.350;2022-08-14T07:52:44;225.87;;;114.70;;
14066;SDS011;7108;42.684;23.350;2022-08-14T07:55:13;233.40;;;114.63;;
14066;SDS011;7108;42.684;23.350;2022-08-14T07:57:39;223.07;;;113.93;;
14066;SDS011;7108;42.684;23.350;2022-08-14T08:00:11;223.30;;;114.83;;
14066;SDS011;7108;42.684;23.350;2022-08-14T08:02:42;221.43;;;116.13;;
14066;SDS011;7108;42.684;23.350;2022-08-14T08:05:10;228.33;;;111.90;;
14066;SDS011;7108;42.684;23.350;2022-08-14T08:07:37;226.23;;;107.43;;
14066;SDS011;7108;42.684;23.350;2022-08-14T08:10:08;218.40;;;111.07;;
14066;SDS011;7108;42.684;23.350;2022-08-14T08:12:55;220.57;;;107.60;;
14066;SDS011;7108;42.684;23.350;2022-08-14T08:15:26;227.50;;;107.57;;
14066;SDS011;7108;42.684;23.350;2022-08-14T08:17:53;227.07;;;107.17;;
14066;SDS011;7108;42.684;23.350;2022-08-14T08:20:20;216.00;;;105.23;;
14066;SDS011;7108;42.684;23.350;2022-08-14T08:22:51;232.83;;;108.10;;
14066;SDS011;7108;42.684;23.350;2022-08-14T08:25:19;217.10;;;103.57;;
14066;SDS011;7108;42.684;23.350;2022-08-14T08:30:24;236.13;;;115.37;;
14066;SDS011;7108;42.684;23.350;2022-08-14T08:32:51;210.37;;;103.83;;
14066;SDS011;7108;42.684;23.350;2022-08-14T08:35:19;221.80;;;105.57;;
14066;SDS011;7108;42.684;23.350;2022-08-14T08:37:50;216.57;;;107.27;;
14066;SDS011;7108;42.684;23.350;2022-08-14T08:40:23;215.77;;;104.80;;
14066;SDS011;7108;42.684;23.350;2022-08-14T08:42:50;226.17;;;105.60;;
14066;SDS011;7108;42.684;23.350;2022-08-14T08:45:17;227.80;;;106.67;;
14066;SDS011;7108;42.684;23.350;2022-08-14T08:47:43;219.03;;;107.53;;
14066;SDS011;7108;42.684;23.350;2022-08-14T08:50:23;214.53;;;106.23;;
14066;SDS011;7108;42.684;23.350;2022-08-14T08:53:00;231.40;;;110.00;;
14066;SDS011;7108;42.684;23.350;2022-08-14T08:55:32;217.77;;;106.23;;
14066;SDS011;7108;42.684;23.350;2022-08-14T08:58:06;226.87;;;107.40;;
14066;SDS011;7108;42.684;23.350;2022-08-14T09:00:34;233.90;;;109.00;;
14066;SDS011;7108;42.684;23.350;2022-08-14T09:05:48;227.87;;;108.07;;
14066;SDS011;7108;42.684;23.350;2022-08-14T09:08:18;224.70;;;106.63;;
14066;SDS011;7108;42.684;23.350;2022-08-14T09:10:51;224.43;;;106.57;;
14066;SDS011;7108;42.684;23.350;2022-08-14T09:13:17;226.03;;;106.00;;
14066;SDS011;7108;42.684;23.350;2022-08-14T09:15:45;226.23;;;107.00;;
14066;SDS011;7108;42.684;23.350;2022-08-14T09:18:13;217.30;;;103.00;;
14066;SDS011;7108;42.684;23.350;2022-08-14T09:20:41;226.80;;;107.53;;
14066;SDS011;7108;42.684;23.350;2022-08-14T09:23:10;227.40;;;106.03;;
14066;SDS011;7108;42.684;23.350;2022-08-14T09:25:36;227.80;;;106.10;;
14066;SDS011;7108;42.684;23.350;2022-08-14T09:28:03;223.70;;;109.20;;
14066;SDS011;7108;42.684;23.350;2022-08-14T09:30:30;221.97;;;105.53;;
14066;SDS011;7108;42.684;23.350;2022-08-14T09:38:15;225.30;;;105.30;;
14066;SDS011;7108;42.684;23.350;2022-08-14T09:46:08;232.90;;;106.47;;
14066;SDS011;7108;42.684;23.350;2022-08-14T09:48:34;225.73;;;109.20;;
14066;SDS011;7108;42.684;23.350;2022-08-14T09:51:02;218.93;;;108.23;;
14066;SDS011;7108;42.684;23.350;2022-08-14T09:53:35;235.47;;;113.63;;
14066;SDS011;7108;42.684;23.350;2022-08-14T09:56:03;212.40;;;102.33;;
14066;SDS011;7108;42.684;23.350;2022-08-14T10:01:09;239.83;;;111.10;;
14066;SDS011;7108;42.684;23.350;2022-08-14T10:03:37;230.63;;;106.37;;
14066;SDS011;7108;42.684;23.350;2022-08-14T10:06:13;222.30;;;105.37;;
14066;SDS011;7108;42.684;23.350;2022-08-14T10:08:48;215.10;;;104.50;;
14066;SDS011;7108;42.684;23.350;2022-08-14T10:11:21;228.10;;;103.67;;
14066;SDS011;7108;42.684;23.350;2022-08-14T10:13:53;228.93;;;107.47;;
14066;SDS011;7108;42.684;23.350;2022-08-14T10:16:22;224.13;;;107.00;;
14066;SDS011;7108;42.684;23.350;2022-08-14T10:19:06;210.77;;;103.63;;
14066;SDS011;7108;42.684;23.350;2022-08-14T10:21:40;234.83;;;106.23;;
14066;SDS011;7108;42.684;23.350;2022-08-14T10:24:10;227.63;;;105.20;;
14066;SDS011;7108;42.684;23.350;2022-08-14T10:26:54;225.50;;;107.10;;
14066;SDS011;7108;42.684;23.350;2022-08-14T10:29:29;242.63;;;108.37;;
14066;SDS011;7108;42.684;23.350;2022-08-14T10:31:59;213.87;;;102.70;;
14066;SDS011;7108;42.684;23.350;2022-08-14T10:34:29;215.40;;;107.40;;
14066;SDS011;7108;42.684;23.350;2022-08-14T10:39:37;240.07;;;114.20;;
14066;SDS011;7108;42.684;23.350;2022-08-14T10:42:05;237.70;;;109.93;;
14066;SDS011;7108;42.684;23.350;2022-08-14T10:44:35;228.57;;;109.77;;
14066;SDS011;7108;42.684;23.350;2022-08-14T10:47:04;230.07;;;110.10;;
14066;SDS011;7108;42.684;23.350;2022-08-14T10:49:33;225.87;;;107.53;;
14066;SDS011;7108;42.684;23.350;2022-08-14T10:54:33;229.23;;;111.33;;
14066;SDS011;7108;42.684;23.350;2022-08-14T11:00:10;218.37;;;108.37;;
14066;SDS011;7108;42.684;23.350;2022-08-14T11:02:38;227.20;;;110.57;;
14066;SDS011;7108;42.684;23.350;2022-08-14T11:07:41;233.10;;;111.00;;
14066;SDS011;7108;42.684;23.350;2022-08-14T11:10:19;235.63;;;108.93;;
14066;SDS011;7108;42.684;23.350;2022-08-14T11:12:48;224.17;;;108.77;;
14066;SDS011;7108;42.684;23.350;2022-08-14T11:15:22;223.13;;;104.90;;
14066;SDS011;7108;42.684;23.350;2022-08-14T11:17:52;219.67;;;107.27;;
14066;SDS011;7108;42.684;23.350;2022-08-14T11:20:20;233.40;;;110.70;;
14066;SDS011;7108;42.684;23.350;2022-08-14T11:22:49;231.77;;;109.63;;
14066;SDS011;7108;42.684;23.350;2022-08-14T11:25:18;230.10;;;111.17;;
14066;SDS011;7108;42.684;23.350;2022-08-14T11:27:48;220.13;;;108.90;;
14066;SDS011;7108;42.684;23.350;2022-08-14T11:30:16;221.00;;;105.83;;
14066;SDS011;7108;42.684;23.350;2022-08-14T11:32:47;232.70;;;108.20;;
14066;SDS011;7108;42.684;23.350;2022-08-14T11:35:16;238.57;;;113.33;;
14066;SDS011;7108;42.684;23.350;2022-08-14T11:37:59;227.53;;;111.67;;
14066;SDS011;7108;42.684;23.350;2022-08-14T11:40:28;223.90;;;109.40;;
14066;SDS011;7108;42.684;23.350;2022-08-14T11:43:03;210.90;;;108.87;;
14066;SDS011;7108;42.684;23.350;2022-08-14T11:45:34;213.07;;;113.43;;
14066;SDS011;7108;42.684;23.350;2022-08-14T11:48:18;226.00;;;110.67;;
14066;SDS011;7108;42.684;23.350;2022-08-14T11:50:46;227.80;;;117.97;;
14066;SDS011;7108;42.684;23.350;2022-08-14T11:53:20;234.93;;;114.50;;
14066;SDS011;7108;42.684;23.350;2022-08-14T11:58:35;225.83;;;110.03;;
14066;SDS011;7108;42.684;23.350;2022-08-14T12:01:06;220.30;;;110.20;;
14066;SDS011;7108;42.684;23.350;2022-08-14T12:03:37;221.87;;;111.17;;
14066;SDS011;7108;42.684;23.350;2022-08-14T12:06:19;221.87;;;115.33;;
14066;SDS011;7108;42.684;23.350;2022-08-14T12:08:45;232.07;;;114.97;;
14066;SDS011;7108;42.684;23.350;2022-08-14T12:11:11;232.80;;;115.87;;
14066;SDS011;7108;42.684;23.350;2022-08-14T12:13:39;233.30;;;115.60;;
14066;SDS011;7108;42.684;23.350;2022-08-14T12:16:10;218.77;;;114.60;;
14066;SDS011;7108;42.684;23.350;2022-08-14T12:18:38;216.53;;;115.43;;
14066;SDS011;7108;42.684;23.350;2022-08-14T12:23:46;246.77;;;118.90;;
14066;SDS011;7108;42.684;23.350;2022-08-14T12:26:14;226.63;;;115.37;;
14066;SDS011;7108;42.684;23.350;2022-08-14T12:28:48;238.37;;;118.30;;
14066;SDS011;7108;42.684;23.350;2022-08-14T12:31:16;225.63;;;116.53;;
14066;SDS011;7108;42.684;23.350;2022-08-14T12:34:06;235.30;;;116.23;;
14066;SDS011;7108;42.684;23.350;2022-08-14T12:36:32;227.43;;;114.23;;
14066;SDS011;7108;42.684;23.350;2022-08-14T12:38:59;224.83;;;114.17;;
14066;SDS011;7108;42.684;23.350;2022-08-14T12:41:26;230.27;;;115.43;;
14066;SDS011;7108;42.684;23.350;2022-08-14T12:44:01;235.97;;;115.57;;
14066;SDS011;7108;42.684;23.350;2022-08-14T12:49:07;217.83;;;111.70;;
14066;SDS011;7108;42.684;23.350;2022-08-14T12:51:41;239.00;;;113.27;;
14066;SDS011;7108;42.684;23.350;2022-08-14T12:54:17;227.37;;;115.33;;
14066;SDS011;7108;42.684;23.350;2022-08-14T12:56:44;231.97;;;113.67;;
14066;SDS011;7108;42.684;23.350;2022-08-14T12:59:11;245.77;;;114.47;;
14066;SDS011;7108;42.684;23.350;2022-08-14T13:01:38;239.27;;;115.20;;
14066;SDS011;7108;42.684;23.350;2022-08-14T13:04:10;226.47;;;114.83;;
14066;SDS011;7108;42.684;23.350;2022-08-14T13:06:38;257.30;;;117.20;;
14066;SDS011;7108;42.684;23.350;2022-08-14T13:09:06;256.33;;;117.83;;
14066;SDS011;7108;42.684;23.350;2022-08-14T13:11:36;268.00;;;122.27;;
14066;SDS011;7108;42.684;23.350;2022-08-14T13:14:05;268.63;;;125.90;;
14066;SDS011;7108;42.684;23.350;2022-08-14T13:16:31;254.97;;;121.03;;
14066;SDS011;7108;42.684;23.350;2022-08-14T13:18:56;287.93;;;124.37;;
14066;SDS011;7108;42.684;23.350;2022-08-14T13:21:26;294.50;;;119.43;;
14066;SDS011;7108;42.684;23.350;2022-08-14T13:23:53;277.23;;;117.37;;
14066;SDS011;7108;42.684;23.350;2022-08-14T13:26:23;286.03;;;120.93;;
14066;SDS011;7108;42.684;23.350;2022-08-14T13:28:49;287.47;;;120.63;;
14066;SDS011;7108;42.684;23.350;2022-08-14T13:31:16;278.07;;;123.40;;
14066;SDS011;7108;42.684;23.350;2022-08-14T13:33:44;274.57;;;119.80;;
14066;SDS011;7108;42.684;23.350;2022-08-14T13:36:10;261.73;;;118.33;;
14066;SDS011;7108;42.684;23.350;2022-08-14T13:38:35;252.43;;;115.33;;
14066;SDS011;7108;42.684;23.350;2022-08-14T13:41:02;269.73;;;119.40;;
14066;SDS011;7108;42.684;23.350;2022-08-14T13:43:28;264.30;;;115.23;;
14066;SDS011;7108;42.684;23.350;2022-08-14T13:45:54;277.00;;;122.50;;
14066;SDS011;7108;42.684;23.350;2022-08-14T13:48:21;281.73;;;122.40;;
14066;SDS011;7108;42.684;23.350;2022-08-14T13:50:49;275.53;;;121.47;;
14066;SDS011;7108;42.684;23.350;2022-08-14T13:53:19;285.60;;;120.67;;
14066;SDS011;7108;42.684;23.350;2022-08-14T13:55:47;271.37;;;121.93;;
14066;SDS011;7108;42.684;23.350;2022-08-14T13:58:15;256.83;;;116.33;;
14066;SDS011;7108;42.684;23.350;2022-08-14T14:00:45;248.93;;;118.77;;
14066;SDS011;7108;42.684;23.350;2022-08-14T14:03:14;284.37;;;120.63;;
14066;SDS011;7108;42.684;23.350;2022-08-14T14:05:39;260.27;;;120.93;;
14066;SDS011;7108;42.684;23.350;2022-08-14T14:08:07;264.57;;;118.40;;
14066;SDS011;7108;42.684;23.350;2022-08-14T14:10:35;270.60;;;121.03;;
14066;SDS011;7108;42.684;23.350;2022-08-14T14:13:01;279.30;;;120.77;;
14066;SDS011;7108;42.684;23.350;2022-08-14T14:15:27;247.07;;;118.23;;
14066;SDS011;7108;42.684;23.350;2022-08-14T14:17:52;283.30;;;121.40;;
14066;SDS011;7108;42.684;23.350;2022-08-14T14:20:20;280.87;;;120.93;;
14066;SDS011;7108;42.684;23.350;2022-08-14T14:22:49;279.50;;;120.97;;
14066;SDS011;7108;42.684;23.350;2022-08-14T14:25:16;270.13;;;121.87;;
14066;SDS011;7108;42.684;23.350;2022-08-14T14:27:43;270.30;;;123.70;;
14066;SDS011;7108;42.684;23.350;2022-08-14T14:30:11;273.37;;;126.20;;
14066;SDS011;7108;42.684;23.350;2022-08-14T14:32:38;248.20;;;116.13;;
14066;SDS011;7108;42.684;23.350;2022-08-14T14:35:06;243.10;;;117.17;;
14066;SDS011;7108;42.684;23.350;2022-08-14T14:37:35;267.87;;;119.37;;
14066;SDS011;7108;42.684;23.350;2022-08-14T14:40:03;279.57;;;120.43;;
14066;SDS011;7108;42.684;23.350;2022-08-14T14:42:30;262.83;;;119.30;;
14066;SDS011;7108;42.684;23.350;2022-08-14T14:45:03;272.57;;;121.53;;
14066;SDS011;7108;42.684;23.350;2022-08-14T14:47:42;274.30;;;122.37;;
14066;SDS011;7108;42.684;23.350;2022-08-14T14:50:10;273.40;;;118.23;;